Terminal Aerodrome Forecast
Issued by NWS

Home | Current Version | Previous Version | Text Only | Print | Product List | Glossary On
Versions: 1 2 3 4 5 6 7 8 9 10 11 12 13 14 15 16 17 18 19 20 21 22
690
FTUS43 KIND 221611 AAC
TAFBMG
TAF AMD
KBMG 221611Z 2216/2312 21005KT 5SM BR OVC005
     FM221700 21005KT 6SM BR BKN008
     FM221900 20007KT P6SM BKN035
     FM230900 23007KT P6SM BKN035
     FM231100 23006KT P6SM BKN015=

USA.gov is the U.S. government's official web portal to all federal, state and local government web resources and services.